Ewart, Iowa
Current Conditions -  °F | °C
As of 4:15 AM on Saturday 22 Nov 2014 (Local Time) from KGGI Reporting Station
Haze Haze  
Wind Chill: 29°   Ceiling: 400
Heat Index: 35°   Visibility: 1.5mi
Dew Point: 34°   Wind: 8mph
Humidity: 96%   Direction: 180°S
Pressure: 29.95"   Gusts: NA
Location:  41.605°N, 92.5043°W
Report Text: KGGI 221015Z AUTO 18007KT 1 1/2SM BR OVC004 02/01 A2995 RMK AO2 T00180012
Loading
Personal Weather Stations






























Interactive Weather Map New forecast layout! Learn more

10-Day Weather Forecast

Advertisements
Track Severe Weather on mobile